sensor_id;sensor_type;location;lat;lon;timestamp;P1;durP1;ratioP1;P2;durP2;ratioP2
1026;SDS011;502;48.746;9.214;2023-09-19T00:04:54;1.93;;;1.10;;
1026;SDS011;502;48.746;9.214;2023-09-19T00:07:21;5.10;;;1.03;;
1026;SDS011;502;48.746;9.214;2023-09-19T00:09:48;1.73;;;0.90;;
1026;SDS011;502;48.746;9.214;2023-09-19T00:12:14;1.43;;;0.90;;
1026;SDS011;502;48.746;9.214;2023-09-19T00:14:41;1.70;;;1.00;;
1026;SDS011;502;48.746;9.214;2023-09-19T00:17:09;1.67;;;0.97;;
1026;SDS011;502;48.746;9.214;2023-09-19T00:19:35;1.80;;;1.10;;
1026;SDS011;502;48.746;9.214;2023-09-19T00:22:03;1.33;;;0.90;;
1026;SDS011;502;48.746;9.214;2023-09-19T00:24:29;1.73;;;1.07;;
1026;SDS011;502;48.746;9.214;2023-09-19T00:26:56;1.20;;;0.80;;
1026;SDS011;502;48.746;9.214;2023-09-19T00:29:24;1.30;;;0.90;;
1026;SDS011;502;48.746;9.214;2023-09-19T00:31:54;2.17;;;1.03;;
1026;SDS011;502;48.746;9.214;2023-09-19T00:34:22;1.50;;;1.00;;
1026;SDS011;502;48.746;9.214;2023-09-19T00:36:50;2.33;;;1.00;;
1026;SDS011;502;48.746;9.214;2023-09-19T00:39:18;1.60;;;0.80;;
1026;SDS011;502;48.746;9.214;2023-09-19T00:41:45;1.40;;;0.80;;
1026;SDS011;502;48.746;9.214;2023-09-19T00:44:12;1.23;;;0.70;;
1026;SDS011;502;48.746;9.214;2023-09-19T00:46:40;1.97;;;0.70;;
1026;SDS011;502;48.746;9.214;2023-09-19T00:49:07;2.03;;;1.07;;
1026;SDS011;502;48.746;9.214;2023-09-19T00:51:36;1.10;;;0.60;;
1026;SDS011;502;48.746;9.214;2023-09-19T00:54:02;1.50;;;0.90;;
1026;SDS011;502;48.746;9.214;2023-09-19T00:56:30;1.57;;;1.03;;
1026;SDS011;502;48.746;9.214;2023-09-19T00:58:56;1.50;;;1.03;;
1026;SDS011;502;48.746;9.214;2023-09-19T01:01:23;1.50;;;1.00;;
1026;SDS011;502;48.746;9.214;2023-09-19T01:03:50;1.73;;;0.90;;
1026;SDS011;502;48.746;9.214;2023-09-19T01:06:17;1.37;;;0.87;;
1026;SDS011;502;48.746;9.214;2023-09-19T01:08:45;1.10;;;0.53;;
1026;SDS011;502;48.746;9.214;2023-09-19T01:11:13;1.60;;;1.00;;
1026;SDS011;502;48.746;9.214;2023-09-19T01:13:46;1.73;;;0.80;;
1026;SDS011;502;48.746;9.214;2023-09-19T01:16:17;2.20;;;0.93;;
1026;SDS011;502;48.746;9.214;2023-09-19T01:18:47;1.63;;;1.00;;
1026;SDS011;502;48.746;9.214;2023-09-19T01:21:18;2.13;;;1.10;;
1026;SDS011;502;48.746;9.214;2023-09-19T01:24:07;1.63;;;0.90;;
1026;SDS011;502;48.746;9.214;2023-09-19T01:26:55;1.43;;;0.80;;
1026;SDS011;502;48.746;9.214;2023-09-19T01:29:33;1.73;;;1.03;;
1026;SDS011;502;48.746;9.214;2023-09-19T01:32:05;1.70;;;0.73;;
1026;SDS011;502;48.746;9.214;2023-09-19T01:34:44;1.90;;;1.37;;
1026;SDS011;502;48.746;9.214;2023-09-19T01:37:12;1.57;;;0.77;;
1026;SDS011;502;48.746;9.214;2023-09-19T01:39:39;1.33;;;1.00;;
1026;SDS011;502;48.746;9.214;2023-09-19T01:42:08;6.27;;;1.00;;
1026;SDS011;502;48.746;9.214;2023-09-19T01:44:40;1.27;;;0.90;;
1026;SDS011;502;48.746;9.214;2023-09-19T01:47:13;1.23;;;0.80;;
1026;SDS011;502;48.746;9.214;2023-09-19T01:49:45;1.43;;;1.00;;
1026;SDS011;502;48.746;9.214;2023-09-19T01:52:18;1.90;;;1.20;;
1026;SDS011;502;48.746;9.214;2023-09-19T01:54:48;2.43;;;1.10;;
1026;SDS011;502;48.746;9.214;2023-09-19T01:57:20;1.60;;;0.80;;
1026;SDS011;502;48.746;9.214;2023-09-19T01:59:52;1.77;;;0.97;;
1026;SDS011;502;48.746;9.214;2023-09-19T02:02:22;1.47;;;1.10;;
1026;SDS011;502;48.746;9.214;2023-09-19T02:04:50;2.10;;;0.97;;
1026;SDS011;502;48.746;9.214;2023-09-19T02:07:17;2.00;;;1.00;;
1026;SDS011;502;48.746;9.214;2023-09-19T02:09:43;1.40;;;1.00;;
1026;SDS011;502;48.746;9.214;2023-09-19T02:12:10;1.40;;;0.80;;
1026;SDS011;502;48.746;9.214;2023-09-19T02:14:38;1.40;;;0.90;;
1026;SDS011;502;48.746;9.214;2023-09-19T02:17:04;1.70;;;0.83;;
1026;SDS011;502;48.746;9.214;2023-09-19T02:19:36;1.70;;;1.00;;
1026;SDS011;502;48.746;9.214;2023-09-19T02:22:03;1.47;;;0.93;;
1026;SDS011;502;48.746;9.214;2023-09-19T02:24:32;1.50;;;0.83;;
1026;SDS011;502;48.746;9.214;2023-09-19T02:26:59;3.30;;;1.03;;
1026;SDS011;502;48.746;9.214;2023-09-19T02:29:27;1.47;;;0.93;;
1026;SDS011;502;48.746;9.214;2023-09-19T02:31:54;1.60;;;1.10;;
1026;SDS011;502;48.746;9.214;2023-09-19T02:34:21;2.07;;;0.80;;
1026;SDS011;502;48.746;9.214;2023-09-19T02:36:50;2.13;;;1.07;;
1026;SDS011;502;48.746;9.214;2023-09-19T02:39:18;1.30;;;1.00;;
1026;SDS011;502;48.746;9.214;2023-09-19T02:41:45;1.30;;;0.90;;
1026;SDS011;502;48.746;9.214;2023-09-19T02:44:12;1.30;;;1.00;;
1026;SDS011;502;48.746;9.214;2023-09-19T02:46:39;1.70;;;0.90;;
1026;SDS011;502;48.746;9.214;2023-09-19T02:49:07;1.30;;;0.80;;
1026;SDS011;502;48.746;9.214;2023-09-19T02:51:34;1.40;;;0.90;;
1026;SDS011;502;48.746;9.214;2023-09-19T02:54:02;1.73;;;0.90;;
1026;SDS011;502;48.746;9.214;2023-09-19T02:56:29;2.63;;;1.10;;
1026;SDS011;502;48.746;9.214;2023-09-19T02:58:57;1.53;;;0.80;;
1026;SDS011;502;48.746;9.214;2023-09-19T03:01:25;1.77;;;0.93;;
1026;SDS011;502;48.746;9.214;2023-09-19T03:03:53;2.13;;;1.03;;
1026;SDS011;502;48.746;9.214;2023-09-19T03:06:20;1.40;;;1.17;;
1026;SDS011;502;48.746;9.214;2023-09-19T03:08:47;1.50;;;0.87;;
1026;SDS011;502;48.746;9.214;2023-09-19T03:11:15;2.67;;;0.97;;
1026;SDS011;502;48.746;9.214;2023-09-19T03:13:45;2.33;;;1.23;;
1026;SDS011;502;48.746;9.214;2023-09-19T03:16:12;1.77;;;1.20;;
1026;SDS011;502;48.746;9.214;2023-09-19T03:18:40;1.50;;;0.90;;
1026;SDS011;502;48.746;9.214;2023-09-19T03:21:07;2.50;;;1.00;;
1026;SDS011;502;48.746;9.214;2023-09-19T03:23:33;1.30;;;0.80;;
1026;SDS011;502;48.746;9.214;2023-09-19T03:26:00;2.70;;;1.13;;
1026;SDS011;502;48.746;9.214;2023-09-19T03:28:28;1.33;;;0.90;;
1026;SDS011;502;48.746;9.214;2023-09-19T03:31:00;1.23;;;0.90;;
1026;SDS011;502;48.746;9.214;2023-09-19T03:33:29;2.63;;;1.20;;
1026;SDS011;502;48.746;9.214;2023-09-19T03:35:58;2.90;;;1.13;;
1026;SDS011;502;48.746;9.214;2023-09-19T03:38:26;1.50;;;1.27;;
1026;SDS011;502;48.746;9.214;2023-09-19T03:40:53;1.60;;;1.17;;
1026;SDS011;502;48.746;9.214;2023-09-19T03:43:19;1.53;;;0.90;;
1026;SDS011;502;48.746;9.214;2023-09-19T03:45:47;2.03;;;1.30;;
1026;SDS011;502;48.746;9.214;2023-09-19T03:48:17;3.07;;;1.50;;
1026;SDS011;502;48.746;9.214;2023-09-19T03:50:45;2.03;;;1.03;;
1026;SDS011;502;48.746;9.214;2023-09-19T03:53:11;1.40;;;0.90;;
1026;SDS011;502;48.746;9.214;2023-09-19T03:55:38;1.83;;;1.10;;
1026;SDS011;502;48.746;9.214;2023-09-19T03:58:05;2.10;;;1.40;;
1026;SDS011;502;48.746;9.214;2023-09-19T04:00:32;2.53;;;1.33;;
1026;SDS011;502;48.746;9.214;2023-09-19T04:03:01;1.63;;;1.10;;
1026;SDS011;502;48.746;9.214;2023-09-19T04:05:31;1.30;;;1.00;;
1026;SDS011;502;48.746;9.214;2023-09-19T04:07:57;1.77;;;1.37;;
1026;SDS011;502;48.746;9.214;2023-09-19T04:10:24;1.30;;;0.90;;
1026;SDS011;502;48.746;9.214;2023-09-19T04:12:50;1.70;;;1.37;;
1026;SDS011;502;48.746;9.214;2023-09-19T04:15:18;1.60;;;1.50;;
1026;SDS011;502;48.746;9.214;2023-09-19T04:17:47;2.30;;;1.20;;
1026;SDS011;502;48.746;9.214;2023-09-19T04:20:15;1.70;;;1.30;;
1026;SDS011;502;48.746;9.214;2023-09-19T04:22:43;1.80;;;1.37;;
1026;SDS011;502;48.746;9.214;2023-09-19T04:25:09;1.87;;;1.20;;
1026;SDS011;502;48.746;9.214;2023-09-19T04:27:36;2.73;;;1.47;;
1026;SDS011;502;48.746;9.214;2023-09-19T04:30:03;2.27;;;1.27;;
1026;SDS011;502;48.746;9.214;2023-09-19T04:32:35;2.00;;;1.23;;
1026;SDS011;502;48.746;9.214;2023-09-19T04:35:04;1.70;;;1.40;;
1026;SDS011;502;48.746;9.214;2023-09-19T04:37:36;1.87;;;1.00;;
1026;SDS011;502;48.746;9.214;2023-09-19T04:40:04;1.83;;;1.33;;
1026;SDS011;502;48.746;9.214;2023-09-19T04:42:32;1.40;;;1.20;;
1026;SDS011;502;48.746;9.214;2023-09-19T04:45:00;2.13;;;1.40;;
1026;SDS011;502;48.746;9.214;2023-09-19T04:47:26;1.90;;;1.43;;
1026;SDS011;502;48.746;9.214;2023-09-19T04:49:53;2.30;;;1.30;;
1026;SDS011;502;48.746;9.214;2023-09-19T04:52:19;2.13;;;1.43;;
1026;SDS011;502;48.746;9.214;2023-09-19T04:54:47;2.10;;;1.27;;
1026;SDS011;502;48.746;9.214;2023-09-19T04:57:14;1.83;;;0.80;;
1026;SDS011;502;48.746;9.214;2023-09-19T04:59:41;2.37;;;1.33;;
1026;SDS011;502;48.746;9.214;2023-09-19T05:02:10;1.60;;;1.20;;
1026;SDS011;502;48.746;9.214;2023-09-19T05:04:37;2.50;;;1.37;;
1026;SDS011;502;48.746;9.214;2023-09-19T05:07:03;2.83;;;1.17;;
1026;SDS011;502;48.746;9.214;2023-09-19T05:09:30;1.50;;;1.10;;
1026;SDS011;502;48.746;9.214;2023-09-19T05:12:00;2.80;;;1.50;;
1026;SDS011;502;48.746;9.214;2023-09-19T05:14:27;1.83;;;1.50;;
1026;SDS011;502;48.746;9.214;2023-09-19T05:16:53;2.10;;;1.43;;
1026;SDS011;502;48.746;9.214;2023-09-19T05:19:20;2.00;;;1.23;;
1026;SDS011;502;48.746;9.214;2023-09-19T05:21:46;7.90;;;2.30;;
1026;SDS011;502;48.746;9.214;2023-09-19T05:24:14;2.60;;;1.60;;
1026;SDS011;502;48.746;9.214;2023-09-19T05:26:42;2.40;;;1.43;;
1026;SDS011;502;48.746;9.214;2023-09-19T05:29:10;2.37;;;1.20;;
1026;SDS011;502;48.746;9.214;2023-09-19T05:31:37;1.80;;;1.30;;
1026;SDS011;502;48.746;9.214;2023-09-19T05:34:06;1.80;;;1.37;;
1026;SDS011;502;48.746;9.214;2023-09-19T05:36:32;1.40;;;1.10;;
1026;SDS011;502;48.746;9.214;2023-09-19T05:38:59;1.70;;;1.30;;
1026;SDS011;502;48.746;9.214;2023-09-19T05:41:25;1.83;;;1.40;;
1026;SDS011;502;48.746;9.214;2023-09-19T05:43:52;1.40;;;1.10;;
1026;SDS011;502;48.746;9.214;2023-09-19T05:46:20;1.80;;;1.40;;
1026;SDS011;502;48.746;9.214;2023-09-19T05:48:47;1.63;;;1.30;;
1026;SDS011;502;48.746;9.214;2023-09-19T05:51:15;2.63;;;1.57;;
1026;SDS011;502;48.746;9.214;2023-09-19T05:53:43;2.67;;;1.87;;
1026;SDS011;502;48.746;9.214;2023-09-19T05:56:09;1.90;;;1.50;;
1026;SDS011;502;48.746;9.214;2023-09-19T05:58:36;1.93;;;1.70;;
1026;SDS011;502;48.746;9.214;2023-09-19T06:01:03;1.80;;;1.50;;
1026;SDS011;502;48.746;9.214;2023-09-19T06:03:33;3.20;;;1.33;;
1026;SDS011;502;48.746;9.214;2023-09-19T06:06:00;3.63;;;1.70;;
1026;SDS011;502;48.746;9.214;2023-09-19T06:08:27;4.90;;;1.90;;
1026;SDS011;502;48.746;9.214;2023-09-19T06:10:54;2.43;;;1.33;;
1026;SDS011;502;48.746;9.214;2023-09-19T06:13:20;1.40;;;1.10;;
1026;SDS011;502;48.746;9.214;2023-09-19T06:15:48;2.40;;;1.30;;
1026;SDS011;502;48.746;9.214;2023-09-19T06:18:15;2.50;;;1.63;;
1026;SDS011;502;48.746;9.214;2023-09-19T06:20:46;1.90;;;1.30;;
1026;SDS011;502;48.746;9.214;2023-09-19T06:23:13;2.67;;;1.30;;
1026;SDS011;502;48.746;9.214;2023-09-19T06:25:40;3.20;;;1.20;;
1026;SDS011;502;48.746;9.214;2023-09-19T06:28:08;1.60;;;1.30;;
1026;SDS011;502;48.746;9.214;2023-09-19T06:30:37;2.27;;;1.30;;
1026;SDS011;502;48.746;9.214;2023-09-19T06:33:05;3.40;;;1.20;;
1026;SDS011;502;48.746;9.214;2023-09-19T06:35:33;2.30;;;1.33;;
1026;SDS011;502;48.746;9.214;2023-09-19T06:38:03;2.07;;;1.60;;
1026;SDS011;502;48.746;9.214;2023-09-19T06:40:31;2.30;;;1.43;;
1026;SDS011;502;48.746;9.214;2023-09-19T06:42:59;2.53;;;2.07;;
1026;SDS011;502;48.746;9.214;2023-09-19T06:45:27;2.10;;;1.80;;
1026;SDS011;502;48.746;9.214;2023-09-19T06:47:53;2.10;;;1.57;;
1026;SDS011;502;48.746;9.214;2023-09-19T06:50:23;3.10;;;1.70;;
1026;SDS011;502;48.746;9.214;2023-09-19T06:52:50;2.23;;;2.03;;
1026;SDS011;502;48.746;9.214;2023-09-19T06:55:19;2.33;;;2.00;;
1026;SDS011;502;48.746;9.214;2023-09-19T06:57:46;2.77;;;1.73;;
1026;SDS011;502;48.746;9.214;2023-09-19T07:00:12;2.40;;;1.90;;
1026;SDS011;502;48.746;9.214;2023-09-19T07:02:43;2.00;;;1.70;;
1026;SDS011;502;48.746;9.214;2023-09-19T07:05:10;2.80;;;1.83;;
1026;SDS011;502;48.746;9.214;2023-09-19T07:07:36;2.50;;;1.77;;
1026;SDS011;502;48.746;9.214;2023-09-19T07:10:03;3.13;;;1.90;;
1026;SDS011;502;48.746;9.214;2023-09-19T07:12:32;1.83;;;1.63;;
1026;SDS011;502;48.746;9.214;2023-09-19T07:14:59;3.03;;;2.23;;
1026;SDS011;502;48.746;9.214;2023-09-19T07:17:25;3.70;;;2.17;;
1026;SDS011;502;48.746;9.214;2023-09-19T07:19:53;4.03;;;1.83;;
1026;SDS011;502;48.746;9.214;2023-09-19T07:22:19;2.13;;;1.77;;
1026;SDS011;502;48.746;9.214;2023-09-19T07:24:46;3.30;;;2.20;;
1026;SDS011;502;48.746;9.214;2023-09-19T07:27:14;2.00;;;1.60;;
1026;SDS011;502;48.746;9.214;2023-09-19T07:29:42;2.70;;;2.10;;
1026;SDS011;502;48.746;9.214;2023-09-19T07:32:10;3.50;;;2.00;;
1026;SDS011;502;48.746;9.214;2023-09-19T07:34:36;2.20;;;1.60;;
1026;SDS011;502;48.746;9.214;2023-09-19T07:37:04;5.43;;;1.70;;
1026;SDS011;502;48.746;9.214;2023-09-19T07:39:30;2.20;;;1.57;;
1026;SDS011;502;48.746;9.214;2023-09-19T07:41:57;2.60;;;1.87;;
1026;SDS011;502;48.746;9.214;2023-09-19T07:44:23;2.13;;;1.77;;
1026;SDS011;502;48.746;9.214;2023-09-19T07:46:52;2.53;;;1.90;;
1026;SDS011;502;48.746;9.214;2023-09-19T07:49:20;2.40;;;1.83;;
1026;SDS011;502;48.746;9.214;2023-09-19T07:51:46;2.23;;;1.80;;
1026;SDS011;502;48.746;9.214;2023-09-19T07:54:13;2.53;;;1.80;;
1026;SDS011;502;48.746;9.214;2023-09-19T07:56:39;3.70;;;1.57;;
1026;SDS011;502;48.746;9.214;2023-09-19T07:59:06;1.93;;;1.40;;
1026;SDS011;502;48.746;9.214;2023-09-19T08:01:33;2.00;;;1.60;;
1026;SDS011;502;48.746;9.214;2023-09-19T08:04:02;2.57;;;1.53;;
1026;SDS011;502;48.746;9.214;2023-09-19T08:06:28;2.93;;;1.63;;
1026;SDS011;502;48.746;9.214;2023-09-19T08:08:55;2.40;;;1.57;;
1026;SDS011;502;48.746;9.214;2023-09-19T08:11:25;3.00;;;1.27;;
1026;SDS011;502;48.746;9.214;2023-09-19T08:13:56;2.10;;;1.60;;
1026;SDS011;502;48.746;9.214;2023-09-19T08:16:23;2.33;;;1.60;;
1026;SDS011;502;48.746;9.214;2023-09-19T08:18:50;2.53;;;1.50;;
1026;SDS011;502;48.746;9.214;2023-09-19T08:21:21;1.73;;;1.30;;
1026;SDS011;502;48.746;9.214;2023-09-19T08:23:49;2.00;;;1.63;;
1026;SDS011;502;48.746;9.214;2023-09-19T08:26:15;2.77;;;1.50;;
1026;SDS011;502;48.746;9.214;2023-09-19T08:28:43;1.80;;;1.27;;
1026;SDS011;502;48.746;9.214;2023-09-19T08:31:09;1.70;;;1.40;;
1026;SDS011;502;48.746;9.214;2023-09-19T08:33:36;2.87;;;1.50;;
1026;SDS011;502;48.746;9.214;2023-09-19T08:36:03;2.80;;;1.13;;
1026;SDS011;502;48.746;9.214;2023-09-19T08:38:31;2.10;;;1.43;;
1026;SDS011;502;48.746;9.214;2023-09-19T08:40:59;1.87;;;1.10;;
1026;SDS011;502;48.746;9.214;2023-09-19T08:43:26;1.87;;;1.50;;
1026;SDS011;502;48.746;9.214;2023-09-19T08:45:54;3.17;;;1.37;;
1026;SDS011;502;48.746;9.214;2023-09-19T08:48:25;1.60;;;1.27;;
1026;SDS011;502;48.746;9.214;2023-09-19T08:50:55;1.50;;;1.23;;
1026;SDS011;502;48.746;9.214;2023-09-19T08:53:27;1.83;;;1.33;;
1026;SDS011;502;48.746;9.214;2023-09-19T08:56:03;1.60;;;1.30;;
1026;SDS011;502;48.746;9.214;2023-09-19T08:58:31;3.23;;;1.13;;
1026;SDS011;502;48.746;9.214;2023-09-19T09:01:00;1.60;;;1.40;;
1026;SDS011;502;48.746;9.214;2023-09-19T09:03:28;1.70;;;1.40;;
1026;SDS011;502;48.746;9.214;2023-09-19T09:05:59;2.37;;;1.50;;
1026;SDS011;502;48.746;9.214;2023-09-19T09:08:26;6.93;;;1.60;;
1026;SDS011;502;48.746;9.214;2023-09-19T09:10:54;1.83;;;1.50;;
1026;SDS011;502;48.746;9.214;2023-09-19T09:13:22;2.87;;;1.47;;
1026;SDS011;502;48.746;9.214;2023-09-19T09:15:51;2.73;;;1.50;;
1026;SDS011;502;48.746;9.214;2023-09-19T09:18:19;1.73;;;1.53;;
1026;SDS011;502;48.746;9.214;2023-09-19T09:20:47;2.47;;;1.67;;
1026;SDS011;502;48.746;9.214;2023-09-19T09:23:14;1.93;;;1.50;;
1026;SDS011;502;48.746;9.214;2023-09-19T09:25:47;2.33;;;1.67;;
1026;SDS011;502;48.746;9.214;2023-09-19T09:28:20;2.23;;;1.63;;
1026;SDS011;502;48.746;9.214;2023-09-19T09:30:47;1.80;;;1.60;;
1026;SDS011;502;48.746;9.214;2023-09-19T09:33:15;2.90;;;2.00;;
1026;SDS011;502;48.746;9.214;2023-09-19T09:35:48;2.37;;;1.83;;
1026;SDS011;502;48.746;9.214;2023-09-19T09:38:18;1.93;;;1.70;;
1026;SDS011;502;48.746;9.214;2023-09-19T09:40:46;1.80;;;1.40;;
1026;SDS011;502;48.746;9.214;2023-09-19T09:43:32;2.40;;;1.40;;
1026;SDS011;502;48.746;9.214;2023-09-19T09:46:10;2.50;;;1.80;;
1026;SDS011;502;48.746;9.214;2023-09-19T09:48:56;2.07;;;1.40;;
1026;SDS011;502;48.746;9.214;2023-09-19T09:51:38;3.97;;;1.67;;
1026;SDS011;502;48.746;9.214;2023-09-19T09:54:11;1.80;;;1.40;;
1026;SDS011;502;48.746;9.214;2023-09-19T10:02:46;4.23;;;1.60;;
1026;SDS011;502;48.746;9.214;2023-09-19T10:05:13;1.70;;;1.50;;
1026;SDS011;502;48.746;9.214;2023-09-19T10:07:46;1.90;;;1.23;;
1026;SDS011;502;48.746;9.214;2023-09-19T10:10:15;2.00;;;1.70;;
1026;SDS011;502;48.746;9.214;2023-09-19T10:12:47;2.00;;;1.40;;
1026;SDS011;502;48.746;9.214;2023-09-19T10:15:15;2.00;;;1.33;;
1026;SDS011;502;48.746;9.214;2023-09-19T10:17:47;2.00;;;1.50;;
1026;SDS011;502;48.746;9.214;2023-09-19T10:20:14;2.73;;;1.63;;
1026;SDS011;502;48.746;9.214;2023-09-19T10:22:58;2.37;;;1.60;;
1026;SDS011;502;48.746;9.214;2023-09-19T10:25:26;2.07;;;1.73;;
1026;SDS011;502;48.746;9.214;2023-09-19T10:27:55;2.13;;;1.30;;
1026;SDS011;502;48.746;9.214;2023-09-19T10:30:23;4.20;;;1.57;;
1026;SDS011;502;48.746;9.214;2023-09-19T10:32:54;2.30;;;1.40;;
1026;SDS011;502;48.746;9.214;2023-09-19T10:35:24;2.93;;;1.50;;
1026;SDS011;502;48.746;9.214;2023-09-19T10:37:53;3.23;;;1.50;;
1026;SDS011;502;48.746;9.214;2023-09-19T10:40:20;2.10;;;1.37;;
1026;SDS011;502;48.746;9.214;2023-09-19T10:42:51;1.63;;;1.30;;
1026;SDS011;502;48.746;9.214;2023-09-19T10:45:19;2.17;;;1.40;;
1026;SDS011;502;48.746;9.214;2023-09-19T10:47:47;2.47;;;1.50;;
1026;SDS011;502;48.746;9.214;2023-09-19T10:50:20;2.23;;;1.53;;
1026;SDS011;502;48.746;9.214;2023-09-19T10:52:48;2.03;;;1.50;;
1026;SDS011;502;48.746;9.214;2023-09-19T10:55:15;1.50;;;1.03;;
1026;SDS011;502;48.746;9.214;2023-09-19T10:57:44;1.90;;;1.33;;
1026;SDS011;502;48.746;9.214;2023-09-19T11:00:12;3.60;;;1.20;;
1026;SDS011;502;48.746;9.214;2023-09-19T11:03:16;2.50;;;1.40;;
1026;SDS011;502;48.746;9.214;2023-09-19T11:05:45;2.70;;;1.20;;
1026;SDS011;502;48.746;9.214;2023-09-19T11:08:29;1.70;;;1.40;;
1026;SDS011;502;48.746;9.214;2023-09-19T11:10:57;2.73;;;1.40;;
1026;SDS011;502;48.746;9.214;2023-09-19T11:13:24;1.80;;;1.10;;
1026;SDS011;502;48.746;9.214;2023-09-19T11:18:51;1.90;;;0.97;;
1026;SDS011;502;48.746;9.214;2023-09-19T11:24:28;2.77;;;1.00;;
1026;SDS011;502;48.746;9.214;2023-09-19T11:27:11;2.50;;;1.23;;
1026;SDS011;502;48.746;9.214;2023-09-19T11:29:39;2.03;;;1.57;;
1026;SDS011;502;48.746;9.214;2023-09-19T11:32:06;1.70;;;1.20;;
1026;SDS011;502;48.746;9.214;2023-09-19T11:34:38;1.20;;;0.83;;
1026;SDS011;502;48.746;9.214;2023-09-19T11:40:26;1.63;;;1.30;;
1026;SDS011;502;48.746;9.214;2023-09-19T11:42:53;1.90;;;1.47;;
1026;SDS011;502;48.746;9.214;2023-09-19T11:48:26;2.40;;;1.37;;
1026;SDS011;502;48.746;9.214;2023-09-19T11:50:54;1.80;;;1.33;;
1026;SDS011;502;48.746;9.214;2023-09-19T11:53:22;2.30;;;1.40;;
1026;SDS011;502;48.746;9.214;2023-09-19T11:55:50;1.60;;;1.10;;
1026;SDS011;502;48.746;9.214;2023-09-19T11:58:17;2.67;;;1.63;;
1026;SDS011;502;48.746;9.214;2023-09-19T12:00:45;2.00;;;1.30;;
1026;SDS011;502;48.746;9.214;2023-09-19T12:03:12;1.73;;;1.47;;
1026;SDS011;502;48.746;9.214;2023-09-19T12:05:39;1.43;;;1.10;;
1026;SDS011;502;48.746;9.214;2023-09-19T12:08:07;2.57;;;1.27;;
1026;SDS011;502;48.746;9.214;2023-09-19T12:10:44;2.40;;;1.30;;
1026;SDS011;502;48.746;9.214;2023-09-19T12:13:16;2.13;;;1.40;;
1026;SDS011;502;48.746;9.214;2023-09-19T12:15:43;1.90;;;1.30;;
1026;SDS011;502;48.746;9.214;2023-09-19T12:18:25;1.60;;;1.20;;
1026;SDS011;502;48.746;9.214;2023-09-19T12:20:52;1.70;;;1.10;;
1026;SDS011;502;48.746;9.214;2023-09-19T12:23:22;1.70;;;1.40;;
1026;SDS011;502;48.746;9.214;2023-09-19T12:25:50;2.30;;;1.13;;
1026;SDS011;502;48.746;9.214;2023-09-19T12:28:20;1.77;;;1.40;;
1026;SDS011;502;48.746;9.214;2023-09-19T12:30:47;1.77;;;1.23;;
1026;SDS011;502;48.746;9.214;2023-09-19T12:33:15;2.37;;;1.47;;
1026;SDS011;502;48.746;9.214;2023-09-19T12:35:44;1.57;;;1.03;;
1026;SDS011;502;48.746;9.214;2023-09-19T12:38:21;1.77;;;1.40;;
1026;SDS011;502;48.746;9.214;2023-09-19T12:40:49;3.60;;;1.80;;
1026;SDS011;502;48.746;9.214;2023-09-19T12:43:17;1.73;;;1.10;;
1026;SDS011;502;48.746;9.214;2023-09-19T12:45:45;1.93;;;1.43;;
1026;SDS011;502;48.746;9.214;2023-09-19T12:48:20;1.73;;;1.10;;
1026;SDS011;502;48.746;9.214;2023-09-19T12:51:03;1.77;;;1.30;;
1026;SDS011;502;48.746;9.214;2023-09-19T12:53:33;2.67;;;1.10;;
1026;SDS011;502;48.746;9.214;2023-09-19T12:56:03;1.60;;;1.00;;
1026;SDS011;502;48.746;9.214;2023-09-19T12:58:33;1.87;;;1.40;;
1026;SDS011;502;48.746;9.214;2023-09-19T13:01:01;1.40;;;1.10;;
1026;SDS011;502;48.746;9.214;2023-09-19T13:03:30;1.80;;;1.30;;
1026;SDS011;502;48.746;9.214;2023-09-19T13:06:00;1.50;;;1.00;;
1026;SDS011;502;48.746;9.214;2023-09-19T13:08:29;2.47;;;1.60;;
1026;SDS011;502;48.746;9.214;2023-09-19T13:11:04;2.60;;;1.50;;
1026;SDS011;502;48.746;9.214;2023-09-19T13:13:36;2.20;;;1.47;;
1026;SDS011;502;48.746;9.214;2023-09-19T13:16:05;1.73;;;1.20;;
1026;SDS011;502;48.746;9.214;2023-09-19T13:18:44;1.87;;;1.10;;
1026;SDS011;502;48.746;9.214;2023-09-19T13:21:12;1.47;;;1.13;;
1026;SDS011;502;48.746;9.214;2023-09-19T13:23:47;3.00;;;1.60;;
1026;SDS011;502;48.746;9.214;2023-09-19T13:26:15;2.30;;;1.53;;
1026;SDS011;502;48.746;9.214;2023-09-19T13:28:42;1.60;;;1.10;;
1026;SDS011;502;48.746;9.214;2023-09-19T13:31:10;2.07;;;1.30;;
1026;SDS011;502;48.746;9.214;2023-09-19T13:33:42;2.00;;;1.70;;
1026;SDS011;502;48.746;9.214;2023-09-19T13:36:09;1.77;;;1.20;;
1026;SDS011;502;48.746;9.214;2023-09-19T13:38:37;2.00;;;1.43;;
1026;SDS011;502;48.746;9.214;2023-09-19T13:41:03;1.40;;;1.10;;
1026;SDS011;502;48.746;9.214;2023-09-19T13:43:30;3.33;;;1.40;;
1026;SDS011;502;48.746;9.214;2023-09-19T13:45:56;1.47;;;1.23;;
1026;SDS011;502;48.746;9.214;2023-09-19T13:48:25;1.30;;;1.07;;
1026;SDS011;502;48.746;9.214;2023-09-19T13:50:51;1.50;;;1.17;;
1026;SDS011;502;48.746;9.214;2023-09-19T13:53:18;1.60;;;1.37;;
1026;SDS011;502;48.746;9.214;2023-09-19T13:55:45;1.93;;;1.33;;
1026;SDS011;502;48.746;9.214;2023-09-19T13:58:13;1.83;;;1.17;;
1026;SDS011;502;48.746;9.214;2023-09-19T14:00:40;1.73;;;1.40;;
1026;SDS011;502;48.746;9.214;2023-09-19T14:03:06;1.77;;;1.40;;
1026;SDS011;502;48.746;9.214;2023-09-19T14:05:34;2.53;;;1.13;;
1026;SDS011;502;48.746;9.214;2023-09-19T14:08:01;2.10;;;1.40;;
1026;SDS011;502;48.746;9.214;2023-09-19T14:10:28;1.80;;;1.37;;
1026;SDS011;502;48.746;9.214;2023-09-19T14:12:56;2.17;;;1.20;;
1026;SDS011;502;48.746;9.214;2023-09-19T14:15:24;1.83;;;1.40;;
1026;SDS011;502;48.746;9.214;2023-09-19T14:17:55;1.50;;;1.00;;
1026;SDS011;502;48.746;9.214;2023-09-19T14:20:22;2.07;;;1.50;;
1026;SDS011;502;48.746;9.214;2023-09-19T14:22:50;1.53;;;1.00;;
1026;SDS011;502;48.746;9.214;2023-09-19T14:25:16;2.10;;;1.30;;
1026;SDS011;502;48.746;9.214;2023-09-19T14:27:43;1.93;;;1.10;;
1026;SDS011;502;48.746;9.214;2023-09-19T14:30:10;1.70;;;1.30;;
1026;SDS011;502;48.746;9.214;2023-09-19T14:32:37;3.30;;;1.30;;
1026;SDS011;502;48.746;9.214;2023-09-19T14:35:04;2.00;;;1.30;;
1026;SDS011;502;48.746;9.214;2023-09-19T14:37:31;2.10;;;1.40;;
1026;SDS011;502;48.746;9.214;2023-09-19T14:40:00;1.70;;;1.20;;
1026;SDS011;502;48.746;9.214;2023-09-19T14:42:33;1.77;;;1.33;;
1026;SDS011;502;48.746;9.214;2023-09-19T14:45:01;2.47;;;1.50;;
1026;SDS011;502;48.746;9.214;2023-09-19T14:47:27;2.57;;;1.43;;
1026;SDS011;502;48.746;9.214;2023-09-19T14:49:54;2.00;;;1.30;;
1026;SDS011;502;48.746;9.214;2023-09-19T14:52:21;2.00;;;1.50;;
1026;SDS011;502;48.746;9.214;2023-09-19T14:54:47;1.83;;;1.43;;
1026;SDS011;502;48.746;9.214;2023-09-19T14:57:15;1.90;;;1.30;;
1026;SDS011;502;48.746;9.214;2023-09-19T14:59:42;2.63;;;1.30;;
1026;SDS011;502;48.746;9.214;2023-09-19T15:02:08;1.97;;;1.50;;
1026;SDS011;502;48.746;9.214;2023-09-19T15:04:35;1.97;;;1.70;;
1026;SDS011;502;48.746;9.214;2023-09-19T15:07:02;1.60;;;1.40;;
1026;SDS011;502;48.746;9.214;2023-09-19T15:09:29;2.20;;;1.30;;
1026;SDS011;502;48.746;9.214;2023-09-19T15:11:58;2.77;;;1.50;;
1026;SDS011;502;48.746;9.214;2023-09-19T15:14:26;1.80;;;1.23;;
1026;SDS011;502;48.746;9.214;2023-09-19T15:16:54;1.97;;;1.37;;
1026;SDS011;502;48.746;9.214;2023-09-19T15:19:21;2.30;;;1.20;;
1026;SDS011;502;48.746;9.214;2023-09-19T15:21:48;1.50;;;1.03;;
1026;SDS011;502;48.746;9.214;2023-09-19T15:24:15;1.57;;;1.10;;
1026;SDS011;502;48.746;9.214;2023-09-19T15:26:41;5.00;;;1.27;;
1026;SDS011;502;48.746;9.214;2023-09-19T15:29:10;2.00;;;1.50;;
1026;SDS011;502;48.746;9.214;2023-09-19T15:31:38;1.80;;;1.30;;
1026;SDS011;502;48.746;9.214;2023-09-19T15:34:04;2.00;;;1.30;;
1026;SDS011;502;48.746;9.214;2023-09-19T15:36:32;2.03;;;1.30;;
1026;SDS011;502;48.746;9.214;2023-09-19T15:38:59;1.97;;;1.40;;
1026;SDS011;502;48.746;9.214;2023-09-19T15:41:27;2.00;;;1.37;;
1026;SDS011;502;48.746;9.214;2023-09-19T15:43:55;1.70;;;1.40;;
1026;SDS011;502;48.746;9.214;2023-09-19T15:46:22;1.83;;;1.50;;
1026;SDS011;502;48.746;9.214;2023-09-19T15:48:53;2.00;;;1.40;;
1026;SDS011;502;48.746;9.214;2023-09-19T15:51:19;1.60;;;1.20;;
1026;SDS011;502;48.746;9.214;2023-09-19T15:53:47;2.00;;;1.27;;
1026;SDS011;502;48.746;9.214;2023-09-19T15:56:15;1.80;;;1.40;;
1026;SDS011;502;48.746;9.214;2023-09-19T15:58:43;1.70;;;1.30;;
1026;SDS011;502;48.746;9.214;2023-09-19T16:01:10;2.27;;;1.20;;